Time;durP1;ratioP1;P1;durP2;ratioP2;P2;SDS_P1;SDS_P2;PMS_P1;PMS_P2;Temp;Humidity;BMP_temperature;BMP_pressure;BME280_temperature;BME280_humidity;BME280_pressure;Samples;Min_cycle;Max_cycle;Signal;HPM_P1;HPM_P2
2022/03/04 00:00:56;;;;;;;18.63;15.53;;;;;;;;;;6212852;28;20229;-69
2022/03/04 00:04:16;;;;;;;18.07;14.50;;;;;;;;;;6206522;28;20237;-71
2022/03/04 00:07:37;;;;;;;17.50;14.97;;;;;;;;;;6213177;28;20229;-69
2022/03/04 00:10:58;;;;;;;16.63;14.87;;;;;;;;;;6214646;28;20232;-69
2022/03/04 00:14:20;;;;;;;18.53;16.70;;;;;;;;;;6210245;28;20687;-68
2022/03/04 00:17:42;;;;;;;18.90;16.27;;;;;;;;;;6213452;28;20269;-68
2022/03/04 00:21:03;;;;;;;20.83;16.70;;;;;;;;;;6206434;28;20241;-69
2022/03/04 00:24:25;;;;;;;22.97;16.83;;;;;;;;;;6215122;28;20229;-70
2022/03/04 00:27:46;;;;;;;25.30;17.07;;;;;;;;;;6210570;28;20603;-70
2022/03/04 00:31:07;;;;;;;22.17;16.17;;;;;;;;;;6213425;28;20233;-69
2022/03/04 00:34:29;;;;;;;16.33;14.73;;;;;;;;;;6209852;28;20229;-69
2022/03/04 00:37:50;;;;;;;16.97;14.97;;;;;;;;;;6215888;28;20221;-69
2022/03/04 00:41:11;;;;;;;18.43;15.50;;;;;;;;;;6214838;28;20229;-69
2022/03/04 00:44:32;;;;;;;24.33;16.00;;;;;;;;;;6210411;28;20245;-69
2022/03/04 00:47:53;;;;;;;21.40;15.87;;;;;;;;;;6213993;28;20248;-69
2022/03/04 00:51:16;;;;;;;18.37;16.50;;;;;;;;;;6211037;28;20248;-69
2022/03/04 00:54:37;;;;;;;66.97;18.90;;;;;;;;;;6211941;28;20228;-69
2022/03/04 00:57:58;;;;;;;19.53;16.87;;;;;;;;;;6214408;28;20817;-69
2022/03/04 01:01:19;;;;;;;18.03;16.23;;;;;;;;;;6209047;28;20257;-69
2022/03/04 01:04:40;;;;;;;48.37;18.33;;;;;;;;;;6212027;28;20237;-69
2022/03/04 01:08:02;;;;;;;26.80;17.60;;;;;;;;;;6207689;28;20456;-68
2022/03/04 01:11:23;;;;;;;22.00;17.63;;;;;;;;;;6199532;28;20233;-68
2022/03/04 01:14:43;;;;;;;20.20;15.97;;;;;;;;;;6215337;28;20308;-69
2022/03/04 01:18:04;;;;;;;20.53;17.90;;;;;;;;;;6186046;28;20225;-69
2022/03/04 01:21:25;;;;;;;25.33;18.83;;;;;;;;;;6213466;28;20538;-69
2022/03/04 01:24:47;;;;;;;47.33;18.87;;;;;;;;;;6217276;28;20996;-69
2022/03/04 01:28:09;;;;;;;20.33;17.97;;;;;;;;;;6218286;28;20237;-69
2022/03/04 01:31:29;;;;;;;23.23;15.50;;;;;;;;;;6189815;28;20276;-69
2022/03/04 01:34:50;;;;;;;18.90;16.77;;;;;;;;;;6193683;28;20312;-70
2022/03/04 01:38:11;;;;;;;26.43;18.33;;;;;;;;;;6195063;28;20234;-69
2022/03/04 01:41:34;;;;;;;28.13;18.07;;;;;;;;;;6193029;28;20245;-69
2022/03/04 01:44:54;;;;;;;20.40;18.20;;;;;;;;;;6196798;28;20704;-68
2022/03/04 01:48:16;;;;;;;21.17;16.50;;;;;;;;;;6191774;28;20316;-69
2022/03/04 01:51:37;;;;;;;18.40;16.40;;;;;;;;;;6190640;28;20720;-67
2022/03/04 01:54:58;;;;;;;25.73;16.67;;;;;;;;;;6194550;28;20596;-71
2022/03/04 01:58:20;;;;;;;24.23;16.27;;;;;;;;;;6190740;28;22218;-68
2022/03/04 02:01:41;;;;;;;46.20;16.80;;;;;;;;;;6187876;28;20234;-69
2022/03/04 02:05:03;;;;;;;18.43;16.43;;;;;;;;;;6189538;28;20246;-69
2022/03/04 02:08:24;;;;;;;19.50;17.13;;;;;;;;;;6192929;28;20292;-69
2022/03/04 02:11:45;;;;;;;21.83;16.67;;;;;;;;;;6191701;28;20659;-69
2022/03/04 02:15:09;;;;;;;25.30;18.77;;;;;;;;;;6190479;28;20241;-69
2022/03/04 02:18:29;;;;;;;21.10;17.17;;;;;;;;;;6189649;28;20226;-69
2022/03/04 02:21:53;;;;;;;19.63;15.07;;;;;;;;;;6194726;28;20230;-68
2022/03/04 02:25:14;;;;;;;19.93;16.60;;;;;;;;;;6193331;28;20238;-69
2022/03/04 02:28:35;;;;;;;18.77;15.93;;;;;;;;;;6194703;28;20229;-68
2022/03/04 02:31:56;;;;;;;18.17;15.23;;;;;;;;;;6216614;28;20773;-68
2022/03/04 02:35:17;;;;;;;16.87;15.03;;;;;;;;;;6216383;28;20229;-68
2022/03/04 02:38:42;;;;;;;21.93;16.43;;;;;;;;;;6215609;28;20237;-68
2022/03/04 02:42:03;;;;;;;19.37;15.90;;;;;;;;;;6210834;28;20323;-68
2022/03/04 02:45:25;;;;;;;39.53;19.30;;;;;;;;;;6216169;28;20233;-68
2022/03/04 02:48:46;;;;;;;20.53;15.60;;;;;;;;;;6210105;28;20233;-68
2022/03/04 02:52:07;;;;;;;32.70;17.63;;;;;;;;;;6215162;28;20235;-69
2022/03/04 02:55:30;;;;;;;22.63;17.03;;;;;;;;;;6217135;28;20324;-69
2022/03/04 02:58:51;;;;;;;20.77;17.17;;;;;;;;;;6211424;28;20217;-68
2022/03/04 03:02:12;;;;;;;22.63;17.83;;;;;;;;;;6212331;28;20500;-68
2022/03/04 03:05:35;;;;;;;19.50;17.43;;;;;;;;;;6214873;28;20237;-68
2022/03/04 03:08:56;;;;;;;19.77;16.37;;;;;;;;;;6216957;28;20266;-68
2022/03/04 03:12:18;;;;;;;19.97;16.03;;;;;;;;;;6188569;28;20233;-69
2022/03/04 03:15:39;;;;;;;19.97;16.37;;;;;;;;;;6216366;28;20228;-69
2022/03/04 03:18:59;;;;;;;31.60;18.33;;;;;;;;;;6216117;28;20229;-68
2022/03/04 03:22:20;;;;;;;23.83;18.20;;;;;;;;;;6218109;28;20237;-68
2022/03/04 03:25:41;;;;;;;19.53;17.43;;;;;;;;;;6215895;28;20240;-69
2022/03/04 03:29:03;;;;;;;20.20;17.33;;;;;;;;;;6211932;28;20229;-69
2022/03/04 03:32:24;;;;;;;20.03;15.10;;;;;;;;;;6213730;28;20229;-68
2022/03/04 03:35:45;;;;;;;19.90;15.27;;;;;;;;;;6216102;28;20233;-69
2022/03/04 03:39:08;;;;;;;17.93;14.07;;;;;;;;;;6211905;28;20253;-69
2022/03/04 03:42:29;;;;;;;15.17;12.90;;;;;;;;;;6215819;28;20229;-70
2022/03/04 03:45:51;;;;;;;19.83;13.67;;;;;;;;;;6210407;28;20516;-69
2022/03/04 03:49:11;;;;;;;18.33;13.80;;;;;;;;;;6216460;28;20744;-69
2022/03/04 03:52:33;;;;;;;24.00;15.53;;;;;;;;;;6216774;28;20770;-69
2022/03/04 03:55:54;;;;;;;18.00;15.33;;;;;;;;;;6215355;28;20229;-69
2022/03/04 03:59:15;;;;;;;22.50;17.23;;;;;;;;;;6213920;28;21017;-69
2022/03/04 04:02:37;;;;;;;22.03;15.60;;;;;;;;;;6214498;28;20229;-69
2022/03/04 04:05:58;;;;;;;19.83;15.53;;;;;;;;;;6211764;28;20623;-70
2022/03/04 04:09:19;;;;;;;35.63;17.50;;;;;;;;;;6212799;28;20540;-69
2022/03/04 04:12:40;;;;;;;36.33;15.83;;;;;;;;;;6216213;28;20224;-68
2022/03/04 04:16:01;;;;;;;39.77;32.90;;;;;;;;;;6213012;28;20241;-69
2022/03/04 04:19:23;;;;;;;30.30;23.00;;;;;;;;;;6215523;28;20228;-69
2022/03/04 04:22:44;;;;;;;38.03;17.40;;;;;;;;;;6215589;28;20561;-69
2022/03/04 04:26:06;;;;;;;27.53;18.53;;;;;;;;;;6211701;28;20232;-67
2022/03/04 04:29:27;;;;;;;21.87;17.97;;;;;;;;;;6209393;28;20221;-67
2022/03/04 04:32:48;;;;;;;23.17;17.87;;;;;;;;;;6210856;28;20229;-70
2022/03/04 04:36:11;;;;;;;19.83;16.63;;;;;;;;;;6201740;28;20237;-70
2022/03/04 04:39:31;;;;;;;20.07;15.87;;;;;;;;;;6214075;28;20582;-70
2022/03/04 04:42:52;;;;;;;25.53;17.87;;;;;;;;;;6213297;28;20315;-68
2022/03/04 04:46:13;;;;;;;18.30;14.50;;;;;;;;;;6198966;28;20332;-69
2022/03/04 04:49:36;;;;;;;21.40;16.73;;;;;;;;;;6212932;28;20229;-69
2022/03/04 04:52:59;;;;;;;20.70;16.97;;;;;;;;;;6215409;28;20221;-69
2022/03/04 04:56:20;;;;;;;39.93;34.20;;;;;;;;;;6218784;28;20555;-68
2022/03/04 04:59:40;;;;;;;39.07;33.63;;;;;;;;;;6217875;28;20248;-69
2022/03/04 05:03:01;;;;;;;25.33;18.40;;;;;;;;;;6215384;28;20225;-69
2022/03/04 05:06:22;;;;;;;29.23;17.77;;;;;;;;;;6217873;28;20229;-68
2022/03/04 05:09:44;;;;;;;24.73;16.00;;;;;;;;;;6216679;28;20240;-69
2022/03/04 05:13:05;;;;;;;36.87;31.97;;;;;;;;;;6216173;28;20229;-68
2022/03/04 05:16:26;;;;;;;21.20;17.53;;;;;;;;;;6216077;28;20797;-69
2022/03/04 05:19:46;;;;;;;21.07;14.67;;;;;;;;;;6217498;28;20244;-69
2022/03/04 05:23:08;;;;;;;43.63;37.83;;;;;;;;;;6214267;28;20229;-68
2022/03/04 05:26:31;;;;;;;36.17;30.27;;;;;;;;;;6216693;28;20233;-69
2022/03/04 05:29:52;;;;;;;20.67;15.20;;;;;;;;;;6217801;28;20233;-69
2022/03/04 05:33:13;;;;;;;16.97;14.57;;;;;;;;;;6217797;28;20658;-69
2022/03/04 05:36:35;;;;;;;16.70;13.30;;;;;;;;;;6216874;28;20575;-68
2022/03/04 05:39:56;;;;;;;20.03;14.33;;;;;;;;;;6219037;28;20225;-69
2022/03/04 05:43:18;;;;;;;18.50;13.93;;;;;;;;;;6217597;28;20352;-68
2022/03/04 05:46:39;;;;;;;19.23;12.83;;;;;;;;;;6214647;28;20233;-69
2022/03/04 05:50:00;;;;;;;17.40;12.63;;;;;;;;;;6211046;28;20603;-70
2022/03/04 05:53:20;;;;;;;15.33;12.37;;;;;;;;;;6218361;28;20861;-68
2022/03/04 05:56:41;;;;;;;13.90;12.10;;;;;;;;;;6217037;28;20237;-69
2022/03/04 06:00:04;;;;;;;15.47;12.37;;;;;;;;;;6214759;28;20233;-69
2022/03/04 06:03:25;;;;;;;16.57;13.50;;;;;;;;;;6211344;28;20225;-68
2022/03/04 06:06:46;;;;;;;18.87;16.40;;;;;;;;;;6217293;28;20519;-69
2022/03/04 06:10:07;;;;;;;27.83;14.27;;;;;;;;;;6216833;28;20637;-69
2022/03/04 06:13:28;;;;;;;15.97;13.20;;;;;;;;;;6206780;28;20229;-69
2022/03/04 06:16:50;;;;;;;13.77;12.27;;;;;;;;;;6216313;28;20323;-68
2022/03/04 06:20:12;;;;;;;19.30;12.67;;;;;;;;;;6218482;28;20237;-69
2022/03/04 06:23:33;;;;;;;14.87;12.83;;;;;;;;;;6217969;28;20225;-70
2022/03/04 06:26:54;;;;;;;13.93;11.37;;;;;;;;;;6217030;28;20228;-68
2022/03/04 06:30:14;;;;;;;11.27;10.07;;;;;;;;;;6213086;28;20229;-69
2022/03/04 06:33:38;;;;;;;13.13;11.73;;;;;;;;;;6216782;28;20240;-69
2022/03/04 06:36:59;;;;;;;18.60;11.97;;;;;;;;;;6217259;28;20225;-69
2022/03/04 06:40:20;;;;;;;18.23;12.17;;;;;;;;;;6215204;28;20225;-71
2022/03/04 06:43:43;;;;;;;13.70;11.50;;;;;;;;;;6205730;28;20225;-70
2022/03/04 06:47:04;;;;;;;15.77;12.60;;;;;;;;;;6212098;28;20304;-68
2022/03/04 06:50:27;;;;;;;13.57;10.50;;;;;;;;;;6214598;28;20226;-68
2022/03/04 06:53:48;;;;;;;20.63;11.83;;;;;;;;;;6216762;28;20586;-69
2022/03/04 06:57:09;;;;;;;18.60;10.87;;;;;;;;;;6216744;28;20623;-68
2022/03/04 07:00:30;;;;;;;15.70;12.90;;;;;;;;;;6212416;28;20222;-69
2022/03/04 07:03:51;;;;;;;13.80;10.83;;;;;;;;;;6216126;28;20221;-69
2022/03/04 07:07:13;;;;;;;15.27;11.87;;;;;;;;;;6216948;28;20245;-69
2022/03/04 07:10:35;;;;;;;14.00;10.83;;;;;;;;;;6216852;28;20343;-69
2022/03/04 07:13:56;;;;;;;34.97;28.97;;;;;;;;;;6211983;28;20225;-69
2022/03/04 07:17:17;;;;;;;17.90;14.90;;;;;;;;;;6213147;28;20217;-69
2022/03/04 07:20:39;;;;;;;12.77;9.93;;;;;;;;;;6204903;28;20237;-68
2022/03/04 07:24:01;;;;;;;15.50;9.97;;;;;;;;;;6217230;28;20237;-70
2022/03/04 07:27:22;;;;;;;12.93;10.53;;;;;;;;;;6213479;28;20264;-69
2022/03/04 07:30:45;;;;;;;13.40;9.90;;;;;;;;;;6212914;28;20316;-68
2022/03/04 07:34:05;;;;;;;12.37;10.17;;;;;;;;;;6212790;28;20229;-69
2022/03/04 07:37:26;;;;;;;13.50;9.53;;;;;;;;;;6215337;28;20229;-69
2022/03/04 07:40:49;;;;;;;11.53;9.13;;;;;;;;;;6215161;28;20277;-70
2022/03/04 07:44:11;;;;;;;8.97;8.07;;;;;;;;;;6214440;28;20626;-69
2022/03/04 07:47:31;;;;;;;27.70;24.33;;;;;;;;;;6210729;28;20228;-67
2022/03/04 07:50:52;;;;;;;26.90;16.13;;;;;;;;;;6214821;28;20236;-68
2022/03/04 07:54:13;;;;;;;25.20;22.50;;;;;;;;;;6210696;28;20236;-69
2022/03/04 07:57:37;;;;;;;16.23;12.00;;;;;;;;;;6207813;28;20685;-69
2022/03/04 08:00:58;;;;;;;31.00;26.87;;;;;;;;;;6208354;28;20556;-69
2022/03/04 08:04:19;;;;;;;20.43;17.87;;;;;;;;;;6209541;28;20327;-70
2022/03/04 08:07:40;;;;;;;13.40;10.20;;;;;;;;;;6215108;28;20320;-69
2022/03/04 08:11:01;;;;;;;10.77;9.60;;;;;;;;;;6215046;28;20225;-69
2022/03/04 08:14:23;;;;;;;11.93;9.90;;;;;;;;;;6214003;28;20232;-68
2022/03/04 08:17:45;;;;;;;10.97;9.30;;;;;;;;;;6211432;28;20241;-69
2022/03/04 08:21:06;;;;;;;11.83;10.00;;;;;;;;;;6215289;28;20526;-69
2022/03/04 08:24:26;;;;;;;10.53;8.97;;;;;;;;;;6215033;28;20229;-67
2022/03/04 08:27:47;;;;;;;10.73;9.50;;;;;;;;;;6200969;28;20241;-68
2022/03/04 08:31:11;;;;;;;13.37;11.27;;;;;;;;;;6213729;28;20232;-68
2022/03/04 08:34:33;;;;;;;13.50;11.87;;;;;;;;;;6213266;28;20229;-70
2022/03/04 08:37:54;;;;;;;11.13;9.60;;;;;;;;;;6214604;28;20747;-69
2022/03/04 08:41:15;;;;;;;11.83;9.20;;;;;;;;;;6207052;28;20931;-69
2022/03/04 08:44:36;;;;;;;15.33;11.80;;;;;;;;;;6192551;28;20221;-69
2022/03/04 08:48:00;;;;;;;10.73;9.33;;;;;;;;;;6211462;28;20782;-70
2022/03/04 08:51:24;;;;;;;10.03;8.60;;;;;;;;;;6209134;28;20324;-70
2022/03/04 08:54:46;;;;;;;10.23;8.80;;;;;;;;;;6213688;28;20233;-69
2022/03/04 08:58:06;;;;;;;10.07;7.93;;;;;;;;;;6209447;28;20610;-69
2022/03/04 09:01:27;;;;;;;10.13;9.07;;;;;;;;;;6214484;28;20540;-70
2022/03/04 09:04:50;;;;;;;10.97;9.60;;;;;;;;;;6213118;28;20225;-69
2022/03/04 09:08:11;;;;;;;10.87;8.30;;;;;;;;;;6199646;28;20230;-69
2022/03/04 09:11:32;;;;;;;12.13;9.20;;;;;;;;;;6214123;28;20232;-68
2022/03/04 09:14:53;;;;;;;10.53;8.37;;;;;;;;;;6209724;28;20225;-69
2022/03/04 09:18:14;;;;;;;11.20;8.63;;;;;;;;;;6214378;28;20233;-69
2022/03/04 09:21:36;;;;;;;12.33;8.90;;;;;;;;;;6209202;28;20237;-69
2022/03/04 09:24:57;;;;;;;11.07;7.87;;;;;;;;;;6213081;28;20234;-69
2022/03/04 09:28:18;;;;;;;9.00;6.97;;;;;;;;;;6213570;28;20602;-68
2022/03/04 09:31:39;;;;;;;10.73;7.93;;;;;;;;;;6214533;28;20338;-69
2022/03/04 09:35:00;;;;;;;9.03;7.47;;;;;;;;;;6213135;28;20237;-70
2022/03/04 09:38:22;;;;;;;12.23;9.27;;;;;;;;;;6215239;28;20641;-69
2022/03/04 09:41:46;;;;;;;9.30;7.73;;;;;;;;;;6217264;28;20248;-69
2022/03/04 09:45:07;;;;;;;9.67;7.80;;;;;;;;;;6212244;28;20241;-68
2022/03/04 09:48:29;;;;;;;9.93;7.17;;;;;;;;;;6219077;28;20577;-69
2022/03/04 09:51:50;;;;;;;9.73;7.57;;;;;;;;;;6191676;28;20328;-70
2022/03/04 09:55:13;;;;;;;9.77;8.30;;;;;;;;;;6218777;28;20241;-69
2022/03/04 09:58:33;;;;;;;17.70;15.80;;;;;;;;;;6214360;28;20225;-69
2022/03/04 10:01:57;;;;;;;10.73;8.27;;;;;;;;;;6219916;28;20230;-70
2022/03/04 10:05:18;;;;;;;9.60;7.37;;;;;;;;;;6217953;28;20600;-69
2022/03/04 10:08:40;;;;;;;10.83;7.57;;;;;;;;;;6216173;28;20241;-69
2022/03/04 10:12:04;;;;;;;9.97;8.37;;;;;;;;;;6215947;28;20229;-68
2022/03/04 10:15:26;;;;;;;8.43;7.57;;;;;;;;;;6217865;28;20488;-69
2022/03/04 10:18:47;;;;;;;10.93;7.50;;;;;;;;;;6218466;28;20236;-70
2022/03/04 10:22:08;;;;;;;7.47;5.93;;;;;;;;;;6216605;28;20252;-71
2022/03/04 10:25:30;;;;;;;7.67;6.80;;;;;;;;;;6212149;28;20225;-68
2022/03/04 10:28:52;;;;;;;7.20;6.50;;;;;;;;;;6213081;28;20637;-69
2022/03/04 10:32:16;;;;;;;10.23;7.97;;;;;;;;;;6218089;28;20225;-69
2022/03/04 10:35:37;;;;;;;8.97;7.43;;;;;;;;;;6217111;28;20259;-68
2022/03/04 10:39:07;;;;;;;8.63;7.10;;;;;;;;;;6216655;28;20267;-69
2022/03/04 10:42:47;;;;;;;11.00;7.77;;;;;;;;;;6214500;28;20606;-69
2022/03/04 10:46:09;;;;;;;10.00;7.50;;;;;;;;;;6210392;28;20241;-69
2022/03/04 10:49:30;;;;;;;6.20;5.33;;;;;;;;;;6216172;28;20245;-69
2022/03/04 10:52:59;;;;;;;10.73;8.00;;;;;;;;;;6214577;28;20232;-68
2022/03/04 10:56:21;;;;;;;7.40;6.70;;;;;;;;;;6216664;28;20236;-69
2022/03/04 10:59:55;;;;;;;7.53;6.27;;;;;;;;;;6215724;28;20237;-70
2022/03/04 11:03:20;;;;;;;9.67;5.93;;;;;;;;;;6217267;28;20225;-69
2022/03/04 11:06:42;;;;;;;8.37;7.00;;;;;;;;;;6205837;28;20237;-69
2022/03/04 11:10:03;;;;;;;8.47;6.83;;;;;;;;;;6215552;28;20233;-70
2022/03/04 11:13:24;;;;;;;8.43;6.87;;;;;;;;;;6199860;28;20539;-69
2022/03/04 11:16:45;;;;;;;9.33;8.33;;;;;;;;;;6215551;28;20256;-69
2022/03/04 11:20:10;;;;;;;7.83;6.77;;;;;;;;;;6213170;28;20328;-70
2022/03/04 11:23:33;;;;;;;6.30;5.67;;;;;;;;;;6209037;28;20229;-69
2022/03/04 11:27:01;;;;;;;7.37;6.47;;;;;;;;;;6216658;28;20225;-69
2022/03/04 11:30:30;;;;;;;8.57;6.67;;;;;;;;;;6215259;28;20244;-68
2022/03/04 11:33:53;;;;;;;8.17;5.83;;;;;;;;;;6216370;28;20217;-69
2022/03/04 11:37:19;;;;;;;6.87;6.17;;;;;;;;;;6202767;28;20229;-69
2022/03/04 11:40:50;;;;;;;7.93;6.50;;;;;;;;;;6214461;28;20233;-68
2022/03/04 11:44:14;;;;;;;7.30;6.17;;;;;;;;;;6215251;28;20277;-70
2022/03/04 11:47:40;;;;;;;7.20;6.50;;;;;;;;;;6214868;28;20515;-69
2022/03/04 11:51:14;;;;;;;40.60;36.50;;;;;;;;;;6202956;28;20233;-70
2022/03/04 11:54:37;;;;;;;7.25;6.53;;;;;;;;;;6215276;28;20232;-69
2022/03/04 11:58:03;;;;;;;6.93;6.20;;;;;;;;;;6213323;28;20715;-68
2022/03/04 12:01:26;;;;;;;7.38;6.57;;;;;;;;;;6211830;28;20673;-69
2022/03/04 12:04:49;;;;;;;6.13;5.63;;;;;;;;;;6188422;28;20304;-69
2022/03/04 12:08:11;;;;;;;8.13;7.32;;;;;;;;;;6225763;28;20518;-69
2022/03/04 12:11:33;;;;;;;7.20;6.57;;;;;;;;;;6215272;28;20253;-68
2022/03/04 12:14:55;;;;;;;7.35;6.65;;;;;;;;;;6214259;28;20771;-70
2022/03/04 12:18:18;;;;;;;8.00;7.30;;;;;;;;;;6215149;28;20229;-69
2022/03/04 12:21:41;;;;;;;7.18;5.90;;;;;;;;;;6214522;28;20245;-69
2022/03/04 12:25:04;;;;;;;6.32;5.72;;;;;;;;;;6215642;28;20241;-69
2022/03/04 12:28:27;;;;;;;8.65;7.93;;;;;;;;;;6206860;28;20249;-70
2022/03/04 12:31:48;;;;;;;6.75;5.95;;;;;;;;;;6211982;28;20482;-69
2022/03/04 12:35:09;;;;;;;9.18;7.65;;;;;;;;;;6209266;28;20607;-69
2022/03/04 12:38:32;;;;;;;6.43;5.88;;;;;;;;;;6214116;28;20282;-70
2022/03/04 12:41:57;;;;;;;7.00;5.80;;;;;;;;;;6214527;28;20236;-68
2022/03/04 12:45:19;;;;;;;4.95;4.32;;;;;;;;;;6208187;28;20244;-69
2022/03/04 12:48:40;;;;;;;11.23;8.02;;;;;;;;;;6211263;28;20265;-69
2022/03/04 12:52:01;;;;;;;4.80;4.18;;;;;;;;;;6207451;28;20795;-70
2022/03/04 12:55:22;;;;;;;4.00;3.60;;;;;;;;;;6214882;28;20236;-70
2022/03/04 12:58:44;;;;;;;5.22;4.80;;;;;;;;;;6211649;28;20622;-69
2022/03/04 13:02:07;;;;;;;4.57;4.18;;;;;;;;;;6213624;28;20229;-69
2022/03/04 13:05:27;;;;;;;6.18;5.68;;;;;;;;;;6214800;28;20232;-67
2022/03/04 13:08:53;;;;;;;6.32;5.72;;;;;;;;;;6211430;28;20320;-69
2022/03/04 13:12:14;;;;;;;5.03;4.55;;;;;;;;;;6214058;28;20225;-70
2022/03/04 13:15:35;;;;;;;4.70;4.25;;;;;;;;;;6217945;28;20237;-69
2022/03/04 13:19:00;;;;;;;4.20;3.80;;;;;;;;;;6203712;28;20501;-68
2022/03/04 13:22:21;;;;;;;4.10;3.60;;;;;;;;;;6220270;28;20240;-70
2022/03/04 13:25:42;;;;;;;4.28;3.97;;;;;;;;;;6219645;28;20233;-67
2022/03/04 13:29:04;;;;;;;6.22;5.47;;;;;;;;;;6207886;28;20608;-69
2022/03/04 13:32:27;;;;;;;5.15;4.70;;;;;;;;;;6190868;28;20226;-69
2022/03/04 13:35:50;;;;;;;4.13;3.73;;;;;;;;;;6185183;28;20230;-69
2022/03/04 13:39:13;;;;;;;4.90;4.37;;;;;;;;;;6194790;28;20234;-69
2022/03/04 13:42:35;;;;;;;4.80;4.37;;;;;;;;;;6192827;28;20222;-69
2022/03/04 13:45:56;;;;;;;5.10;3.33;;;;;;;;;;6187862;28;20257;-70
2022/03/04 13:49:17;;;;;;;6.20;4.30;;;;;;;;;;6193271;28;20272;-69
2022/03/04 13:52:50;;;;;;;5.93;3.90;;;;;;;;;;6192290;28;20226;-68
2022/03/04 13:56:11;;;;;;;3.93;2.97;;;;;;;;;;6193187;28;20264;-70
2022/03/04 13:59:50;;;;;;;4.47;3.73;;;;;;;;;;6189261;28;20632;-70
2022/03/04 14:03:13;;;;;;;4.53;3.83;;;;;;;;;;6193146;28;20237;-70
2022/03/04 14:06:36;;;;;;;7.50;4.43;;;;;;;;;;6187795;28;20607;-69
2022/03/04 14:09:58;;;;;;;3.40;3.10;;;;;;;;;;6192526;28;20234;-70
2022/03/04 14:13:20;;;;;;;4.67;3.33;;;;;;;;;;6194257;28;20245;-67
2022/03/04 14:16:43;;;;;;;3.57;3.27;;;;;;;;;;6190565;28;20227;-69
2022/03/04 14:20:05;;;;;;;7.67;4.70;;;;;;;;;;6191532;28;20225;-69
2022/03/04 14:23:26;;;;;;;7.77;3.87;;;;;;;;;;6193638;28;20232;-70
2022/03/04 14:26:49;;;;;;;3.47;3.00;;;;;;;;;;6188422;28;20237;-69
2022/03/04 14:30:12;;;;;;;4.07;3.37;;;;;;;;;;6194043;28;20229;-70
2022/03/04 14:33:33;;;;;;;6.77;3.50;;;;;;;;;;6177289;28;20230;-71
2022/03/04 14:36:54;;;;;;;10.87;9.47;;;;;;;;;;6190576;28;20238;-69
2022/03/04 14:40:19;;;;;;;5.97;5.10;;;;;;;;;;6191393;28;20238;-70
2022/03/04 14:43:41;;;;;;;4.63;3.93;;;;;;;;;;6191519;28;20234;-69
2022/03/04 14:47:02;;;;;;;3.50;3.20;;;;;;;;;;6190386;28;20222;-70
2022/03/04 14:50:25;;;;;;;2.63;2.20;;;;;;;;;;6180138;28;20474;-69
2022/03/04 14:53:46;;;;;;;2.70;2.10;;;;;;;;;;6166220;28;20233;-70
2022/03/04 14:57:11;;;;;;;2.00;1.80;;;;;;;;;;6191500;28;20237;-68
2022/03/04 15:00:34;;;;;;;3.63;2.80;;;;;;;;;;6191569;28;20248;-69
2022/03/04 15:03:55;;;;;;;11.03;9.60;;;;;;;;;;6179624;28;20253;-70
2022/03/04 15:07:16;;;;;;;4.20;3.10;;;;;;;;;;6180420;28;20607;-69
2022/03/04 15:10:37;;;;;;;10.70;6.07;;;;;;;;;;6193538;28;20233;-69
2022/03/04 15:13:58;;;;;;;5.83;4.17;;;;;;;;;;6180437;28;20241;-70
2022/03/04 15:17:20;;;;;;;9.10;8.00;;;;;;;;;;6192135;28;20233;-69
2022/03/04 15:20:41;;;;;;;3.53;3.23;;;;;;;;;;6192037;28;20329;-71
2022/03/04 15:24:02;;;;;;;4.23;3.80;;;;;;;;;;6192326;28;20226;-68
2022/03/04 15:27:24;;;;;;;2.77;1.97;;;;;;;;;;6192452;28;20217;-69
2022/03/04 15:30:45;;;;;;;5.13;4.10;;;;;;;;;;6192820;28;20230;-69
2022/03/04 15:34:07;;;;;;;4.63;3.63;;;;;;;;;;6189702;28;20234;-70
2022/03/04 15:37:30;;;;;;;4.90;4.00;;;;;;;;;;6191866;28;20214;-70
2022/03/04 15:40:51;;;;;;;8.03;7.20;;;;;;;;;;6193634;28;20279;-69
2022/03/04 15:44:11;;;;;;;6.73;2.23;;;;;;;;;;6192145;28;20293;-69
2022/03/04 15:47:32;;;;;;;7.00;6.30;;;;;;;;;;6186519;28;20320;-70
2022/03/04 15:50:54;;;;;;;14.53;12.60;;;;;;;;;;6186621;28;20226;-69
2022/03/04 15:54:15;;;;;;;6.50;5.53;;;;;;;;;;6192866;28;20501;-69
2022/03/04 15:57:36;;;;;;;8.17;7.27;;;;;;;;;;6185935;28;20241;-69
2022/03/04 16:00:56;;;;;;;3.63;2.60;;;;;;;;;;6191075;28;20234;-69
2022/03/04 16:04:17;;;;;;;8.27;7.27;;;;;;;;;;6189295;28;20312;-68
2022/03/04 16:07:39;;;;;;;4.90;2.83;;;;;;;;;;6186998;28;20226;-70
2022/03/04 16:11:00;;;;;;;2.30;1.83;;;;;;;;;;6190580;28;20520;-70
2022/03/04 16:14:21;;;;;;;5.60;4.37;;;;;;;;;;6181226;28;20316;-69
2022/03/04 16:17:41;;;;;;;9.13;7.00;;;;;;;;;;6186823;28;20233;-69
2022/03/04 16:21:02;;;;;;;5.40;4.17;;;;;;;;;;6185012;28;20230;-69
2022/03/04 16:24:25;;;;;;;8.83;4.33;;;;;;;;;;6193196;28;20241;-71
2022/03/04 16:27:46;;;;;;;3.13;2.80;;;;;;;;;;6186590;28;20233;-70
2022/03/04 16:31:07;;;;;;;9.13;7.63;;;;;;;;;;6214862;28;20236;-69
2022/03/04 16:34:27;;;;;;;5.30;2.73;;;;;;;;;;6214805;28;20649;-69
2022/03/04 16:37:48;;;;;;;5.03;3.37;;;;;;;;;;6208747;28;20229;-69
2022/03/04 16:41:11;;;;;;;6.13;3.47;;;;;;;;;;6215712;28;20225;-72
2022/03/04 16:44:32;;;;;;;3.10;1.77;;;;;;;;;;6213655;28;20241;-69
2022/03/04 16:47:52;;;;;;;8.03;6.77;;;;;;;;;;6214178;28;20594;-68
2022/03/04 16:51:13;;;;;;;14.00;12.03;;;;;;;;;;6212254;28;20260;-69
2022/03/04 16:54:34;;;;;;;10.17;5.17;;;;;;;;;;6220426;28;20256;-70
2022/03/04 16:57:56;;;;;;;12.73;10.13;;;;;;;;;;6217771;28;20660;-69
2022/03/04 17:01:17;;;;;;;25.90;20.00;;;;;;;;;;6218172;28;20232;-69
2022/03/04 17:04:38;;;;;;;25.23;17.80;;;;;;;;;;6216668;28;20251;-70
2022/03/04 17:07:59;;;;;;;8.60;7.73;;;;;;;;;;6218094;28;20500;-70
2022/03/04 17:11:21;;;;;;;11.00;8.80;;;;;;;;;;6221925;28;20232;-68
2022/03/04 17:14:45;;;;;;;18.83;16.60;;;;;;;;;;6217244;28;20397;-69
2022/03/04 17:18:06;;;;;;;21.73;18.40;;;;;;;;;;6217908;28;20249;-70
2022/03/04 17:21:27;;;;;;;20.77;16.67;;;;;;;;;;6215159;28;20232;-70
2022/03/04 17:24:48;;;;;;;37.03;27.23;;;;;;;;;;6222050;28;20232;-69
2022/03/04 17:28:09;;;;;;;13.33;10.27;;;;;;;;;;6219343;28;20260;-69
2022/03/04 17:31:31;;;;;;;21.63;18.17;;;;;;;;;;6216324;28;20315;-71
2022/03/04 17:34:52;;;;;;;19.40;15.70;;;;;;;;;;6219377;28;20236;-70
2022/03/04 17:38:13;;;;;;;11.93;6.70;;;;;;;;;;6220500;28;20237;-69
2022/03/04 17:41:34;;;;;;;6.80;4.60;;;;;;;;;;6216455;28;20229;-71
2022/03/04 17:44:58;;;;;;;6.67;3.50;;;;;;;;;;6217711;28;20248;-70
2022/03/04 17:48:21;;;;;;;7.20;5.93;;;;;;;;;;6219094;28;20233;-70
2022/03/04 17:51:42;;;;;;;6.20;3.93;;;;;;;;;;6215473;28;20248;-70
2022/03/04 17:55:03;;;;;;;4.47;3.90;;;;;;;;;;6217937;28;20221;-70
2022/03/04 17:58:23;;;;;;;10.53;9.43;;;;;;;;;;6219074;28;20245;-71
2022/03/04 18:01:44;;;;;;;8.93;5.43;;;;;;;;;;6210031;28;20283;-70
2022/03/04 18:05:10;;;;;;;9.17;6.90;;;;;;;;;;6218118;28;20225;-70
2022/03/04 18:08:31;;;;;;;7.03;5.23;;;;;;;;;;6213638;28;20241;-69
2022/03/04 18:11:54;;;;;;;8.67;5.37;;;;;;;;;;6218113;28;20229;-69
2022/03/04 18:15:15;;;;;;;5.67;4.20;;;;;;;;;;6215074;28;20248;-70
2022/03/04 18:18:36;;;;;;;10.00;7.40;;;;;;;;;;6217335;28;20229;-72
2022/03/04 18:21:58;;;;;;;10.27;8.13;;;;;;;;;;6208182;28;20237;-69
2022/03/04 18:25:19;;;;;;;9.20;6.17;;;;;;;;;;6208888;28;20232;-70
2022/03/04 18:28:39;;;;;;;8.07;4.53;;;;;;;;;;6208323;28;20582;-71
2022/03/04 18:32:00;;;;;;;6.27;4.33;;;;;;;;;;6213754;28;20233;-70
2022/03/04 18:35:21;;;;;;;16.90;11.83;;;;;;;;;;6218214;28;20237;-70
2022/03/04 18:42:21;;;;;;;12.03;8.00;;;;;;;;;;6217419;28;20237;-70
2022/03/04 18:45:43;;;;;;;26.10;19.67;;;;;;;;;;6211681;28;20229;-71
2022/03/04 18:49:04;;;;;;;12.90;11.50;;;;;;;;;;6218247;28;20312;-71
2022/03/04 18:52:25;;;;;;;14.13;10.80;;;;;;;;;;6207564;28;20233;-69
2022/03/04 18:55:47;;;;;;;13.83;9.40;;;;;;;;;;6218837;28;20233;-69
2022/03/04 18:59:07;;;;;;;9.33;6.37;;;;;;;;;;6216107;28;20233;-70
2022/03/04 19:02:28;;;;;;;6.67;4.17;;;;;;;;;;6214850;28;20241;-70
2022/03/04 19:05:49;;;;;;;4.53;2.70;;;;;;;;;;6218048;28;20256;-72
2022/03/04 19:09:10;;;;;;;5.17;3.30;;;;;;;;;;6218718;28;20230;-69
2022/03/04 19:12:35;;;;;;;5.47;4.00;;;;;;;;;;6218291;28;20225;-71
2022/03/04 19:15:55;;;;;;;7.97;3.63;;;;;;;;;;6216158;28;20666;-69
2022/03/04 19:19:17;;;;;;;7.67;3.90;;;;;;;;;;6218334;28;20233;-71
2022/03/04 19:22:38;;;;;;;12.40;8.63;;;;;;;;;;6204833;28;20233;-69
2022/03/04 19:26:00;;;;;;;10.10;7.43;;;;;;;;;;6216164;28;20225;-70
2022/03/04 19:29:22;;;;;;;15.07;10.67;;;;;;;;;;6219229;28;20500;-69
2022/03/04 19:32:43;;;;;;;13.30;10.67;;;;;;;;;;6212047;28;20229;-71
2022/03/04 19:36:05;;;;;;;26.77;21.70;;;;;;;;;;6215200;28;20417;-69
2022/03/04 19:39:26;;;;;;;7.17;4.53;;;;;;;;;;6216270;28;20225;-70
2022/03/04 19:42:47;;;;;;;13.57;9.37;;;;;;;;;;6213192;28;20237;-70
2022/03/04 19:46:09;;;;;;;12.03;8.87;;;;;;;;;;6208657;28;20325;-69
2022/03/04 19:49:30;;;;;;;8.33;5.30;;;;;;;;;;6217388;28;20226;-70
2022/03/04 19:52:51;;;;;;;20.37;15.00;;;;;;;;;;6216259;28;20241;-72